createdAt,value
2022-10-09T00:01:00.977Z,3.67
2022-10-09T00:03:28.355Z,3.30
2022-10-09T00:05:54.959Z,3.55
2022-10-09T00:08:21.612Z,3.17
2022-10-09T00:10:48.433Z,3.53
2022-10-09T00:13:16.676Z,3.22
2022-10-09T00:15:44.881Z,3.65
2022-10-09T00:18:13.675Z,2.85
2022-10-09T00:20:42.316Z,3.03
2022-10-09T00:23:10.105Z,3.28
2022-10-09T00:25:37.102Z,3.00
2022-10-09T00:28:04.586Z,3.55
2022-10-09T00:30:34.240Z,3.50
2022-10-09T00:33:01.087Z,3.40
2022-10-09T00:35:29.014Z,4.03
2022-10-09T00:37:56.026Z,3.30
2022-10-09T00:40:24.111Z,3.70
2022-10-09T00:42:56.203Z,3.28
2022-10-09T00:45:23.138Z,3.40
2022-10-09T00:47:54.264Z,3.50
2022-10-09T00:50:24.144Z,3.75
2022-10-09T00:52:54.305Z,2.95
2022-10-09T00:55:23.087Z,3.45
2022-10-09T00:57:53.615Z,3.70
2022-10-09T01:00:21.536Z,3.75
2022-10-09T01:02:48.660Z,3.53
2022-10-09T01:05:17.295Z,3.17
2022-10-09T01:07:50.266Z,3.28
2022-10-09T01:10:27.228Z,3.65
2022-10-09T01:13:03.417Z,3.40
2022-10-09T01:15:35.499Z,3.85
2022-10-09T01:18:07.194Z,4.03
2022-10-09T01:20:46.429Z,3.97
2022-10-09T01:23:36.917Z,3.83
2022-10-09T01:26:13.182Z,3.70
2022-10-09T01:28:46.938Z,4.15
2022-10-09T01:31:18.557Z,3.95
2022-10-09T01:33:46.726Z,4.50
2022-10-09T01:36:14.967Z,4.50
2022-10-09T01:38:43.765Z,4.18
2022-10-09T01:41:11.073Z,4.93
2022-10-09T01:43:37.772Z,4.57
2022-10-09T01:46:26.464Z,4.97
2022-10-09T01:49:11.840Z,5.32
2022-10-09T01:51:58.402Z,5.28
2022-10-09T01:54:37.316Z,5.00
2022-10-09T01:57:24.382Z,5.70
2022-10-09T02:00:02.130Z,4.88
2022-10-09T02:02:47.726Z,5.55
2022-10-09T02:07:55.384Z,5.70
2022-10-09T02:10:37.532Z,5.10
2022-10-09T02:13:11.966Z,5.10
2022-10-09T02:15:51.529Z,6.05
2022-10-09T02:18:36.576Z,5.32
2022-10-09T02:21:22.537Z,5.40
2022-10-09T02:24:01.600Z,5.57
2022-10-09T02:26:43.462Z,4.80
2022-10-09T02:29:17.138Z,5.35
2022-10-09T02:31:51.481Z,5.43
2022-10-09T02:34:26.538Z,5.68
2022-10-09T02:37:08.427Z,4.70
2022-10-09T02:39:42.029Z,5.60
2022-10-09T02:42:15.625Z,4.75
2022-10-09T02:44:48.990Z,5.25
2022-10-09T02:47:28.508Z,5.13
2022-10-09T02:50:03.766Z,6.00
2022-10-09T02:52:37.415Z,5.03
2022-10-09T02:55:13.777Z,5.45
2022-10-09T02:57:47.410Z,5.05
2022-10-09T03:00:20.806Z,6.13
2022-10-09T03:03:00.489Z,5.47
2022-10-09T03:05:35.365Z,5.47
2022-10-09T03:08:08.367Z,5.22
2022-10-09T03:10:48.389Z,5.60
2022-10-09T03:13:21.878Z,5.50
2022-10-09T03:16:01.463Z,5.35
2022-10-09T03:18:35.667Z,5.30
2022-10-09T03:21:13.454Z,5.47
2022-10-09T03:23:50.277Z,4.93
2022-10-09T03:26:32.426Z,5.25
2022-10-09T03:29:06.146Z,5.45
2022-10-09T03:31:51.719Z,4.88
2022-10-09T03:34:25.836Z,5.35
2022-10-09T03:37:00.399Z,4.68
2022-10-09T03:39:40.393Z,5.20
2022-10-09T03:42:14.106Z,4.78
2022-10-09T03:44:47.402Z,5.32
2022-10-09T03:47:21.094Z,5.60
2022-10-09T03:49:54.431Z,5.13
2022-10-09T03:52:29.387Z,5.00
2022-10-09T03:55:02.434Z,5.20
2022-10-09T03:57:35.922Z,5.05
2022-10-09T04:00:16.398Z,5.30
2022-10-09T04:02:50.698Z,5.57
2022-10-09T04:05:24.413Z,5.80
2022-10-09T04:07:59.442Z,5.25
2022-10-09T04:10:32.378Z,5.78
2022-10-09T04:13:06.423Z,5.70
2022-10-09T04:15:41.602Z,5.78
2022-10-09T04:18:15.135Z,5.88
2022-10-09T04:20:51.397Z,5.20
2022-10-09T04:23:33.589Z,5.60
2022-10-09T04:26:06.987Z,4.97
2022-10-09T04:28:46.713Z,5.60
2022-10-09T04:31:20.024Z,5.68
2022-10-09T04:33:53.417Z,5.38
2022-10-09T04:36:27.134Z,5.38
2022-10-09T04:39:01.705Z,5.85
2022-10-09T04:41:38.331Z,4.88
2022-10-09T04:44:18.390Z,5.32
2022-10-09T04:46:51.988Z,5.25
2022-10-09T04:49:25.457Z,4.88
2022-10-09T04:52:05.448Z,4.95
2022-10-09T04:54:40.234Z,5.10
2022-10-09T04:57:13.456Z,4.90
2022-10-09T04:59:47.025Z,4.88
2022-10-09T05:02:26.491Z,5.18
2022-10-09T05:04:59.943Z,5.45
2022-10-09T05:07:33.394Z,4.45
2022-10-09T05:10:09.037Z,4.82
2022-10-09T05:12:42.442Z,5.20
2022-10-09T05:15:16.025Z,5.15
2022-10-09T05:17:49.428Z,4.85
2022-10-09T05:20:23.202Z,4.95
2022-10-09T05:23:03.867Z,5.22
2022-10-09T05:25:44.398Z,4.65
2022-10-09T05:28:18.121Z,4.65
2022-10-09T05:30:51.585Z,4.95
2022-10-09T05:33:25.166Z,4.85
2022-10-09T05:35:59.416Z,5.18
2022-10-09T05:38:33.439Z,5.05
2022-10-09T05:41:17.640Z,5.00
2022-10-09T05:43:57.665Z,4.72
2022-10-09T05:46:36.011Z,5.10
2022-10-09T05:49:21.724Z,4.75
2022-10-09T05:51:55.810Z,5.82
2022-10-09T05:54:31.461Z,5.88
2022-10-09T05:57:14.873Z,6.93
2022-10-09T05:59:51.390Z,8.63
2022-10-09T06:43:52.521Z,5.13
2022-10-09T06:46:22.712Z,4.97
2022-10-09T06:48:49.368Z,5.03
2022-10-09T06:51:17.846Z,5.18
2022-10-09T06:53:46.902Z,5.55
2022-10-09T06:56:14.646Z,4.85
2022-10-09T06:58:41.594Z,5.43
2022-10-09T07:01:10.229Z,6.13
2022-10-09T07:03:39.599Z,5.20
2022-10-09T07:06:07.791Z,5.07
2022-10-09T07:08:34.545Z,5.22
2022-10-09T07:11:06.973Z,6.28
2022-10-09T07:13:33.493Z,5.28
2022-10-09T07:16:04.536Z,6.30
2022-10-09T07:18:32.698Z,5.78
2022-10-09T07:21:02.193Z,5.40
2022-10-09T07:23:29.070Z,6.05
2022-10-09T07:25:55.730Z,6.28
2022-10-09T07:28:22.830Z,5.90
2022-10-09T07:30:49.484Z,5.90
2022-10-09T07:33:16.034Z,6.15
2022-10-09T07:35:43.759Z,6.32
2022-10-09T07:38:11.717Z,7.47
2022-10-09T07:40:38.239Z,6.55
2022-10-09T07:43:04.757Z,6.43
2022-10-09T07:45:31.345Z,6.07
2022-10-09T07:47:57.974Z,6.18
2022-10-09T07:50:24.644Z,4.90
2022-10-09T07:52:51.921Z,5.05
2022-10-09T07:55:20.037Z,5.35
2022-10-09T07:57:46.609Z,5.20
2022-10-09T08:00:13.728Z,5.03
2022-10-09T08:02:40.379Z,4.45
2022-10-09T08:05:07.729Z,4.57
2022-10-09T08:07:35.139Z,4.43
2022-10-09T08:10:01.969Z,5.28
2022-10-09T08:12:30.096Z,4.90
2022-10-09T08:14:56.657Z,4.55
2022-10-09T08:17:23.587Z,4.78
2022-10-09T08:19:50.294Z,5.13
2022-10-09T08:22:16.862Z,5.32
2022-10-09T08:24:43.457Z,4.97
2022-10-09T08:27:09.958Z,5.18
2022-10-09T08:29:40.253Z,4.78
2022-10-09T08:32:07.040Z,4.88
2022-10-09T08:34:33.569Z,4.65
2022-10-09T08:37:00.148Z,4.82
2022-10-09T08:39:29.735Z,4.72
2022-10-09T08:41:59.117Z,4.03
2022-10-09T08:44:28.599Z,4.72
2022-10-09T08:47:04.963Z,4.53
2022-10-09T08:49:38.661Z,3.83
2022-10-09T08:52:16.940Z,3.75
2022-10-09T08:54:44.073Z,3.95
2022-10-09T08:57:13.112Z,3.67
2022-10-09T08:59:39.921Z,3.10
2022-10-09T09:02:30.171Z,2.80
2022-10-09T09:05:08.659Z,2.67
2022-10-09T09:07:46.392Z,2.30
2022-10-09T09:10:19.670Z,1.90
2022-10-09T09:12:50.168Z,2.85
2022-10-09T09:15:30.198Z,1.40
2022-10-09T09:18:09.727Z,1.80
2022-10-09T09:20:44.139Z,1.70
2022-10-09T09:23:15.258Z,1.50
2022-10-09T09:25:43.719Z,1.40
2022-10-09T09:28:16.759Z,1.40
2022-10-09T09:30:48.808Z,1.50
2022-10-09T09:33:25.380Z,1.20
2022-10-09T09:36:01.549Z,1.35
2022-10-09T09:38:28.268Z,1.60
2022-10-09T09:40:54.843Z,1.67
2022-10-09T09:43:23.432Z,1.50
2022-10-09T09:45:53.052Z,1.30
2022-10-09T09:48:30.189Z,1.25
2022-10-09T09:51:16.171Z,1.40
2022-10-09T09:53:45.619Z,1.33
2022-10-09T09:56:12.297Z,1.45
2022-10-09T09:58:43.474Z,1.20
2022-10-09T10:01:20.859Z,1.00
2022-10-09T10:03:50.399Z,1.20
2022-10-09T10:06:21.878Z,1.40
2022-10-09T10:08:58.754Z,1.20
2022-10-09T10:11:25.518Z,1.42
2022-10-09T10:13:52.106Z,1.10
2022-10-09T10:16:23.647Z,1.20
2022-10-09T10:21:19.652Z,1.10
2022-10-09T10:23:52.154Z,1.20
2022-10-09T10:26:35.079Z,1.10
2022-10-09T10:29:06.703Z,1.05
2022-10-09T10:31:42.033Z,0.95
2022-10-09T10:34:16.766Z,1.00
2022-10-09T10:37:02.571Z,0.95
2022-10-09T10:39:39.779Z,1.20
2022-10-09T10:42:15.265Z,0.88
2022-10-09T10:44:49.743Z,1.13
2022-10-09T10:47:21.475Z,1.27
2022-10-09T10:49:49.499Z,1.30
2022-10-09T10:52:22.909Z,1.30
2022-10-09T10:54:54.677Z,0.95
2022-10-09T10:57:26.028Z,1.13
2022-10-09T11:00:00.090Z,0.98
2022-10-09T11:03:08.339Z,1.00
2022-10-09T11:05:46.215Z,0.90
2022-10-09T11:08:41.453Z,1.20
2022-10-09T11:11:14.200Z,1.10
2022-10-09T11:13:53.200Z,0.90
2022-10-09T11:16:35.102Z,1.33
2022-10-09T11:19:21.042Z,1.15
2022-10-09T11:21:58.970Z,0.80
2022-10-09T11:25:05.590Z,0.88
2022-10-09T11:27:38.697Z,0.90
2022-10-09T11:30:10.396Z,1.10
2022-10-09T11:32:46.672Z,0.95
2022-10-09T11:35:18.638Z,1.05
2022-10-09T11:37:56.130Z,0.90
2022-10-09T11:40:25.842Z,0.98
2022-10-09T11:43:00.242Z,1.00
2022-10-09T11:45:31.903Z,1.02
2022-10-09T11:48:06.755Z,0.88
2022-10-09T11:50:42.228Z,0.95
2022-10-09T11:53:12.530Z,1.00
2022-10-09T11:55:39.302Z,1.00
2022-10-09T11:58:11.221Z,1.00
2022-10-09T12:00:37.781Z,0.88
2022-10-09T12:03:06.678Z,0.70
2022-10-09T12:05:39.898Z,0.95
2022-10-09T12:08:13.024Z,0.70
2022-10-09T12:10:50.660Z,0.88
2022-10-09T12:13:41.364Z,0.90
2022-10-09T12:16:11.338Z,0.83
2022-10-09T12:18:40.417Z,1.00
2022-10-09T12:21:18.372Z,0.60
2022-10-09T12:23:47.686Z,0.70
2022-10-09T12:26:14.754Z,0.85
2022-10-09T12:28:47.914Z,0.73
2022-10-09T12:31:19.714Z,0.45
2022-10-09T12:33:51.121Z,0.60
2022-10-09T12:38:50.924Z,0.73
2022-10-09T12:41:20.546Z,0.90
2022-10-09T12:43:49.699Z,0.90
2022-10-09T12:46:26.114Z,0.90
2022-10-09T12:48:52.926Z,0.90
2022-10-09T12:51:23.162Z,0.60
2022-10-09T12:53:51.920Z,0.70
2022-10-09T12:56:23.042Z,1.02
2022-10-09T12:58:50.648Z,0.93
2022-10-09T13:01:18.274Z,0.60
2022-10-09T13:03:53.790Z,0.70
2022-10-09T13:06:22.595Z,0.82
2022-10-09T13:08:55.080Z,1.00
2022-10-09T13:11:24.842Z,0.80
2022-10-09T13:13:53.546Z,0.50
2022-10-09T13:16:20.910Z,0.90
2022-10-09T13:18:56.010Z,0.65
2022-10-09T13:21:25.445Z,0.70
2022-10-09T13:23:53.518Z,0.75
2022-10-09T13:26:24.801Z,0.77
2022-10-09T13:28:51.562Z,1.05
2022-10-09T13:31:18.294Z,0.85
2022-10-09T13:33:44.932Z,1.15
2022-10-09T13:36:12.222Z,0.80
2022-10-09T13:38:39.258Z,0.70
2022-10-09T13:41:07.267Z,0.80
2022-10-09T13:43:33.909Z,0.82
2022-10-09T13:46:00.514Z,0.82
2022-10-09T13:48:27.075Z,0.80
2022-10-09T13:50:53.628Z,0.77
2022-10-09T13:53:20.190Z,0.98
2022-10-09T13:55:46.817Z,0.55
2022-10-09T13:58:14.806Z,0.65
2022-10-09T14:00:44.160Z,0.77
2022-10-09T14:03:10.832Z,0.60
2022-10-09T14:05:37.367Z,0.68
2022-10-09T14:08:05.216Z,0.60
2022-10-09T14:10:31.813Z,0.88
2022-10-09T14:12:58.552Z,0.95
2022-10-09T14:15:26.491Z,0.82
2022-10-09T14:17:53.025Z,0.55
2022-10-09T14:20:19.599Z,0.82
2022-10-09T14:22:46.412Z,0.80
2022-10-09T14:25:13.150Z,0.50
2022-10-09T14:27:41.648Z,0.70
2022-10-09T14:30:11.596Z,0.95
2022-10-09T14:32:39.443Z,0.90
2022-10-09T14:35:06.977Z,0.85
2022-10-09T14:37:41.463Z,0.50
2022-10-09T14:40:10.022Z,1.00
2022-10-09T14:42:36.759Z,0.70
2022-10-09T14:45:04.154Z,0.60
2022-10-09T14:47:30.789Z,0.60
2022-10-09T14:49:58.693Z,0.77
2022-10-09T14:52:25.295Z,0.60
2022-10-09T14:54:51.854Z,0.65
2022-10-09T14:57:18.356Z,0.40
2022-10-09T14:59:44.883Z,0.63
2022-10-09T15:02:14.340Z,0.50
2022-10-09T15:04:40.946Z,0.70
2022-10-09T15:07:09.095Z,0.65
2022-10-09T15:09:35.693Z,0.50
2022-10-09T15:12:02.279Z,0.63
2022-10-09T15:14:28.895Z,0.57
2022-10-09T15:16:55.589Z,0.65
2022-10-09T15:19:22.202Z,0.50
2022-10-09T15:21:48.759Z,0.50
2022-10-09T15:24:16.665Z,0.60
2022-10-09T15:26:43.203Z,0.60
2022-10-09T15:29:11.202Z,0.93
2022-10-09T15:31:43.650Z,0.73
2022-10-09T15:34:16.327Z,0.73
2022-10-09T15:36:42.868Z,0.52
2022-10-09T15:39:09.406Z,0.65
2022-10-09T15:41:39.787Z,0.77
2022-10-09T15:44:08.349Z,0.50
2022-10-09T15:46:35.542Z,0.55
2022-10-09T15:49:02.124Z,0.65
2022-10-09T15:51:28.694Z,0.60
2022-10-09T15:53:55.302Z,0.70
2022-10-09T15:56:23.806Z,0.70
2022-10-09T15:58:52.818Z,0.52
2022-10-09T16:01:20.327Z,0.82
2022-10-09T16:03:47.945Z,1.00
2022-10-09T16:06:17.470Z,1.05
2022-10-09T16:08:48.147Z,0.93
2022-10-09T16:11:20.222Z,0.75
2022-10-09T16:13:50.510Z,0.60
2022-10-09T16:16:20.590Z,0.90
2022-10-09T16:18:48.308Z,0.52
2022-10-09T16:21:17.432Z,0.75
2022-10-09T16:23:45.260Z,1.05
2022-10-09T16:26:15.536Z,1.00
2022-10-09T16:30:06.663Z,0.80
2022-10-09T16:31:56.140Z,1.00
2022-10-09T16:36:54.078Z,0.63
2022-10-09T16:39:21.050Z,0.82
2022-10-09T16:42:00.457Z,0.85
2022-10-09T16:44:35.024Z,0.95
2022-10-09T16:47:06.486Z,1.23
2022-10-09T16:49:33.976Z,1.00
2022-10-09T16:52:01.187Z,1.05
2022-10-09T16:54:31.237Z,1.40
2022-10-09T16:56:58.878Z,1.15
2022-10-09T16:59:26.029Z,1.45
2022-10-09T17:01:53.106Z,1.45
2022-10-09T17:04:21.644Z,1.10
2022-10-09T17:06:50.407Z,1.45
2022-10-09T17:09:18.415Z,1.30
2022-10-09T17:11:46.426Z,1.00
2022-10-09T17:14:13.689Z,1.35
2022-10-09T17:16:42.339Z,1.20
2022-10-09T17:19:09.584Z,1.50
2022-10-09T17:21:38.950Z,1.17
2022-10-09T17:24:07.057Z,2.65
2022-10-09T17:26:39.650Z,2.03
2022-10-09T17:29:07.567Z,1.77
2022-10-09T17:31:40.740Z,1.35
2022-10-09T17:34:08.203Z,1.90
2022-10-09T17:36:41.149Z,4.80
2022-10-09T17:39:11.327Z,4.20
2022-10-09T17:41:39.526Z,2.72
2022-10-09T17:44:07.048Z,12.15
2022-10-09T17:46:37.610Z,10.05
2022-10-09T17:49:09.776Z,5.68
2022-10-09T17:51:38.871Z,5.63
2022-10-09T17:54:11.731Z,2.35
2022-10-09T17:56:40.622Z,4.10
2022-10-09T17:59:09.530Z,2.28
2022-10-09T18:02:07.452Z,2.20
2022-10-09T18:04:43.094Z,4.53
2022-10-09T18:07:41.765Z,2.60
2022-10-09T18:10:19.171Z,4.18
2022-10-09T18:12:46.475Z,1.88
2022-10-09T18:15:14.036Z,8.35
2022-10-09T18:17:44.090Z,10.32
2022-10-09T18:20:11.314Z,7.20
2022-10-09T18:22:38.774Z,3.35
2022-10-09T18:25:06.324Z,2.97
2022-10-09T18:27:34.899Z,2.17
2022-10-09T18:30:02.203Z,3.42
2022-10-09T18:32:29.580Z,2.63
2022-10-09T18:34:58.729Z,1.80
2022-10-09T18:37:26.040Z,1.85
2022-10-09T18:39:55.657Z,1.73
2022-10-09T18:42:22.902Z,1.90
2022-10-09T18:44:54.990Z,1.30
2022-10-09T18:49:54.970Z,1.58
2022-10-09T18:52:22.553Z,1.70
2022-10-09T18:54:52.864Z,2.20
2022-10-09T18:57:22.676Z,1.80
2022-10-09T18:59:53.459Z,1.98
2022-10-09T19:02:20.874Z,3.00
2022-10-09T19:04:48.040Z,18.17
2022-10-09T19:07:15.187Z,12.02
2022-10-09T19:09:42.008Z,10.43
2022-10-09T19:12:09.042Z,11.10
2022-10-09T19:14:36.774Z,6.78
2022-10-09T19:17:05.207Z,7.57
2022-10-09T19:19:32.167Z,17.98
2022-10-09T19:21:59.310Z,8.43
2022-10-09T19:24:27.272Z,4.82
2022-10-09T19:26:56.468Z,4.97
2022-10-09T19:29:23.655Z,5.00
2022-10-09T19:31:51.178Z,13.80
2022-10-09T19:34:20.061Z,4.82
2022-10-09T19:36:48.061Z,4.68
2022-10-09T19:39:15.553Z,3.03
2022-10-09T19:41:42.525Z,2.92
2022-10-09T19:44:10.019Z,3.30
2022-10-09T19:46:38.609Z,3.40
2022-10-09T19:49:06.803Z,2.55
2022-10-09T19:51:36.315Z,3.25
2022-10-09T19:54:04.138Z,7.43
2022-10-09T19:56:32.217Z,5.18
2022-10-09T19:59:00.155Z,13.52
2022-10-09T20:01:27.258Z,8.70
2022-10-09T20:03:55.539Z,6.38
2022-10-09T20:06:22.186Z,4.47
2022-10-09T20:08:50.143Z,3.97
2022-10-09T20:11:16.908Z,7.55
2022-10-09T20:13:43.465Z,19.00
2022-10-09T20:16:12.355Z,7.82
2022-10-09T20:18:39.443Z,27.10
2022-10-09T20:21:06.267Z,19.80
2022-10-09T20:23:32.877Z,8.95
2022-10-09T20:26:02.123Z,7.63
2022-10-09T20:28:31.028Z,22.25
2022-10-09T20:30:58.739Z,31.15
2022-10-09T20:33:25.875Z,37.42
2022-10-09T20:35:52.511Z,65.65
2022-10-09T20:38:23.311Z,60.67
2022-10-09T20:40:52.753Z,28.38
2022-10-09T20:43:20.708Z,36.22
2022-10-09T20:45:47.403Z,28.98
2022-10-09T20:48:13.911Z,28.83
2022-10-09T20:50:41.899Z,23.35
2022-10-09T20:53:09.072Z,12.70
2022-10-09T20:55:36.209Z,51.92
2022-10-09T20:58:03.033Z,20.75
2022-10-09T21:00:30.938Z,14.68
2022-10-09T21:02:57.567Z,13.98
2022-10-09T21:05:24.200Z,20.48
2022-10-09T21:07:50.939Z,28.55
2022-10-09T21:10:17.593Z,25.17
2022-10-09T21:12:44.215Z,19.80
2022-10-09T21:15:10.990Z,30.15
2022-10-09T21:17:38.913Z,13.43
2022-10-09T21:20:06.203Z,18.42
2022-10-09T21:22:33.358Z,17.35
2022-10-09T21:24:59.959Z,18.05
2022-10-09T21:27:26.610Z,26.50
2022-10-09T21:29:53.147Z,46.22
2022-10-09T21:32:19.796Z,23.15
2022-10-09T21:34:47.927Z,32.38
2022-10-09T21:37:21.315Z,12.98
2022-10-09T21:39:48.682Z,59.83
2022-10-09T21:42:15.395Z,22.48
2022-10-09T21:44:41.926Z,55.05
2022-10-09T21:47:12.055Z,28.65
2022-10-09T21:49:38.596Z,22.23
2022-10-09T21:52:06.514Z,26.10
2022-10-09T21:54:33.127Z,15.27
2022-10-09T21:56:59.787Z,11.90
2022-10-09T21:59:26.702Z,7.68
2022-10-09T22:01:53.223Z,31.13
2022-10-09T22:04:19.926Z,16.30
2022-10-09T22:06:46.619Z,7.30
2022-10-09T22:09:14.894Z,16.10
2022-10-09T22:11:41.528Z,18.42
2022-10-09T22:14:08.126Z,32.33
2022-10-09T22:16:34.651Z,21.40
2022-10-09T22:19:01.523Z,15.43
2022-10-09T22:21:28.118Z,35.20
2022-10-09T22:23:54.700Z,75.00
2022-10-09T22:26:22.856Z,25.60
2022-10-09T22:28:49.864Z,21.60
2022-10-09T22:31:18.821Z,30.42
2022-10-09T22:33:49.734Z,11.77
2022-10-09T22:36:18.236Z,6.78
2022-10-09T22:38:45.101Z,11.27
2022-10-09T22:41:13.797Z,11.73
2022-10-09T22:43:44.019Z,7.40
2022-10-09T22:46:12.678Z,10.45
2022-10-09T22:48:40.062Z,4.68
2022-10-09T22:51:09.248Z,5.10
2022-10-09T22:53:37.125Z,16.30
2022-10-09T22:56:05.129Z,12.32
2022-10-09T22:58:31.758Z,39.00
2022-10-09T23:01:02.814Z,12.10
2022-10-09T23:03:29.530Z,6.72
2022-10-09T23:06:05.026Z,17.38
2022-10-09T23:08:31.651Z,10.30
2022-10-09T23:10:58.167Z,10.60
2022-10-09T23:13:24.793Z,5.88
2022-10-09T23:15:51.483Z,8.75
2022-10-09T23:18:19.512Z,7.80
2022-10-09T23:20:46.196Z,4.50
2022-10-09T23:23:12.792Z,6.30
2022-10-09T23:25:39.764Z,13.55
2022-10-09T23:28:06.636Z,20.60
2022-10-09T23:30:33.188Z,10.30
2022-10-09T23:32:59.726Z,8.07
2022-10-09T23:35:27.633Z,17.25
2022-10-09T23:37:54.492Z,8.75
2022-10-09T23:40:21.543Z,4.28
2022-10-09T23:42:48.331Z,5.22
2022-10-09T23:45:15.427Z,3.47
2022-10-09T23:47:42.066Z,6.38
2022-10-09T23:50:09.165Z,6.28
2022-10-09T23:52:37.068Z,15.13
2022-10-09T23:55:04.258Z,4.35
2022-10-09T23:57:31.005Z,7.65
2022-10-09T23:59:57.636Z,22.20
